sensor_id;sensor_type;location;lat;lon;timestamp;pressure;altitude;pressure_sealevel;temperature
38114;BMP180;23926;53.222;6.354;2022-09-09T00:03:48;100592.00;;;16.50
38114;BMP180;23926;53.222;6.354;2022-09-09T00:06:42;100587.00;;;16.50
38114;BMP180;23926;53.222;6.354;2022-09-09T00:09:19;100598.00;;;16.50
38114;BMP180;23926;53.222;6.354;2022-09-09T00:12:10;100598.00;;;16.50
38114;BMP180;23926;53.222;6.354;2022-09-09T00:14:47;100595.00;;;16.50
38114;BMP180;23926;53.222;6.354;2022-09-09T00:19:58;100586.00;;;16.40
38114;BMP180;23926;53.222;6.354;2022-09-09T00:22:28;100574.00;;;16.40
38114;BMP180;23926;53.222;6.354;2022-09-09T00:25:02;100579.00;;;16.20
38114;BMP180;23926;53.222;6.354;2022-09-09T00:27:44;100568.00;;;16.20
38114;BMP180;23926;53.222;6.354;2022-09-09T00:32:48;100566.00;;;16.00
38114;BMP180;23926;53.222;6.354;2022-09-09T00:35:29;100566.00;;;16.00
38114;BMP180;23926;53.222;6.354;2022-09-09T00:38:00;100576.00;;;15.90
38114;BMP180;23926;53.222;6.354;2022-09-09T00:40:34;100563.00;;;15.90
38114;BMP180;23926;53.222;6.354;2022-09-09T00:43:20;100556.00;;;15.80
38114;BMP180;23926;53.222;6.354;2022-09-09T00:48:22;100570.00;;;15.90
38114;BMP180;23926;53.222;6.354;2022-09-09T00:50:55;100568.00;;;15.90
38114;BMP180;23926;53.222;6.354;2022-09-09T00:56:26;100547.00;;;15.70
38114;BMP180;23926;53.222;6.354;2022-09-09T00:59:18;100554.00;;;15.70
38114;BMP180;23926;53.222;6.354;2022-09-09T01:01:45;100544.00;;;15.70
38114;BMP180;23926;53.222;6.354;2022-09-09T01:04:20;100542.00;;;15.70
38114;BMP180;23926;53.222;6.354;2022-09-09T01:06:51;100551.00;;;15.70
38114;BMP180;23926;53.222;6.354;2022-09-09T01:09:32;100556.00;;;15.70
38114;BMP180;23926;53.222;6.354;2022-09-09T01:12:11;100541.00;;;15.80
38114;BMP180;23926;53.222;6.354;2022-09-09T01:14:45;100546.00;;;15.70
38114;BMP180;23926;53.222;6.354;2022-09-09T01:17:17;100543.00;;;15.70
38114;BMP180;23926;53.222;6.354;2022-09-09T01:19:45;100546.00;;;15.70
38114;BMP180;23926;53.222;6.354;2022-09-09T01:22:29;100539.00;;;15.70
38114;BMP180;23926;53.222;6.354;2022-09-09T01:25:21;100543.00;;;15.70
38114;BMP180;23926;53.222;6.354;2022-09-09T01:27:49;100542.00;;;15.80
38114;BMP180;23926;53.222;6.354;2022-09-09T01:30:17;100541.00;;;15.90
38114;BMP180;23926;53.222;6.354;2022-09-09T01:32:53;100533.00;;;16.00
38114;BMP180;23926;53.222;6.354;2022-09-09T01:37:55;100543.00;;;16.40
38114;BMP180;23926;53.222;6.354;2022-09-09T01:40:21;100549.00;;;16.50
38114;BMP180;23926;53.222;6.354;2022-09-09T01:42:46;100540.00;;;16.50
38114;BMP180;23926;53.222;6.354;2022-09-09T01:45:12;100540.00;;;16.50
38114;BMP180;23926;53.222;6.354;2022-09-09T01:47:37;100547.00;;;16.60
38114;BMP180;23926;53.222;6.354;2022-09-09T01:50:04;100544.00;;;16.60
38114;BMP180;23926;53.222;6.354;2022-09-09T01:52:33;100555.00;;;16.60
38114;BMP180;23926;53.222;6.354;2022-09-09T01:54:59;100540.00;;;16.70
38114;BMP180;23926;53.222;6.354;2022-09-09T01:57:27;100542.00;;;16.70
38114;BMP180;23926;53.222;6.354;2022-09-09T02:07:48;100546.00;;;16.80
38114;BMP180;23926;53.222;6.354;2022-09-09T02:13:08;100542.00;;;16.90
38114;BMP180;23926;53.222;6.354;2022-09-09T02:16:13;100536.00;;;17.00
38114;BMP180;23926;53.222;6.354;2022-09-09T02:18:36;100548.00;;;17.00
38114;BMP180;23926;53.222;6.354;2022-09-09T02:21:03;100542.00;;;17.00
38114;BMP180;23926;53.222;6.354;2022-09-09T02:23:29;100552.00;;;17.10
38114;BMP180;23926;53.222;6.354;2022-09-09T02:25:58;100546.00;;;17.10
38114;BMP180;23926;53.222;6.354;2022-09-09T02:28:25;100552.00;;;17.20
38114;BMP180;23926;53.222;6.354;2022-09-09T02:30:51;100541.00;;;17.20
38114;BMP180;23926;53.222;6.354;2022-09-09T02:33:24;100542.00;;;17.20
38114;BMP180;23926;53.222;6.354;2022-09-09T02:35:51;100539.00;;;17.30
38114;BMP180;23926;53.222;6.354;2022-09-09T02:38:17;100546.00;;;17.30
38114;BMP180;23926;53.222;6.354;2022-09-09T02:40:43;100545.00;;;17.30
38114;BMP180;23926;53.222;6.354;2022-09-09T02:43:09;100538.00;;;17.20
38114;BMP180;23926;53.222;6.354;2022-09-09T02:48:34;100545.00;;;17.30
38114;BMP180;23926;53.222;6.354;2022-09-09T02:56:47;100538.00;;;17.30
38114;BMP180;23926;53.222;6.354;2022-09-09T02:59:15;100540.00;;;17.30
38114;BMP180;23926;53.222;6.354;2022-09-09T03:01:41;100544.00;;;17.30
38114;BMP180;23926;53.222;6.354;2022-09-09T03:04:06;100533.00;;;17.30
38114;BMP180;23926;53.222;6.354;2022-09-09T03:06:31;100546.00;;;17.40
38114;BMP180;23926;53.222;6.354;2022-09-09T03:08:57;100542.00;;;17.30
38114;BMP180;23926;53.222;6.354;2022-09-09T03:11:24;100548.00;;;17.40
38114;BMP180;23926;53.222;6.354;2022-09-09T03:13:49;100537.00;;;17.40
38114;BMP180;23926;53.222;6.354;2022-09-09T03:16:15;100532.00;;;17.40
38114;BMP180;23926;53.222;6.354;2022-09-09T03:18:40;100534.00;;;17.40
38114;BMP180;23926;53.222;6.354;2022-09-09T03:21:05;100528.00;;;17.40
38114;BMP180;23926;53.222;6.354;2022-09-09T03:23:32;100532.00;;;17.40
38114;BMP180;23926;53.222;6.354;2022-09-09T03:25:57;100536.00;;;17.40
38114;BMP180;23926;53.222;6.354;2022-09-09T03:28:23;100520.00;;;17.30
38114;BMP180;23926;53.222;6.354;2022-09-09T03:30:58;100524.00;;;17.30
38114;BMP180;23926;53.222;6.354;2022-09-09T03:33:24;100528.00;;;17.20
38114;BMP180;23926;53.222;6.354;2022-09-09T03:35:49;100528.00;;;17.10
38114;BMP180;23926;53.222;6.354;2022-09-09T03:38:15;100528.00;;;17.10
38114;BMP180;23926;53.222;6.354;2022-09-09T03:40:49;100530.00;;;17.00
38114;BMP180;23926;53.222;6.354;2022-09-09T03:43:14;100540.00;;;17.00
38114;BMP180;23926;53.222;6.354;2022-09-09T03:45:45;100535.00;;;17.00
38114;BMP180;23926;53.222;6.354;2022-09-09T03:48:12;100537.00;;;17.00
38114;BMP180;23926;53.222;6.354;2022-09-09T03:50:38;100540.00;;;17.00
38114;BMP180;23926;53.222;6.354;2022-09-09T03:53:03;100544.00;;;17.00
38114;BMP180;23926;53.222;6.354;2022-09-09T03:55:28;100540.00;;;17.00
38114;BMP180;23926;53.222;6.354;2022-09-09T03:57:54;100542.00;;;17.00
38114;BMP180;23926;53.222;6.354;2022-09-09T04:00:19;100539.00;;;17.00
38114;BMP180;23926;53.222;6.354;2022-09-09T04:02:44;100528.00;;;17.10
38114;BMP180;23926;53.222;6.354;2022-09-09T04:05:10;100545.00;;;17.20
38114;BMP180;23926;53.222;6.354;2022-09-09T04:07:36;100551.00;;;17.20
38114;BMP180;23926;53.222;6.354;2022-09-09T04:10:02;100548.00;;;17.20
38114;BMP180;23926;53.222;6.354;2022-09-09T04:12:27;100554.00;;;17.30
38114;BMP180;23926;53.222;6.354;2022-09-09T04:14:52;100543.00;;;17.30
38114;BMP180;23926;53.222;6.354;2022-09-09T04:17:18;100542.00;;;17.40
38114;BMP180;23926;53.222;6.354;2022-09-09T04:19:43;100538.00;;;17.40
38114;BMP180;23926;53.222;6.354;2022-09-09T04:22:09;100551.00;;;17.50
38114;BMP180;23926;53.222;6.354;2022-09-09T04:24:34;100528.00;;;17.50
38114;BMP180;23926;53.222;6.354;2022-09-09T04:27:00;100550.00;;;17.50
38114;BMP180;23926;53.222;6.354;2022-09-09T04:29:25;100541.00;;;17.50
38114;BMP180;23926;53.222;6.354;2022-09-09T04:31:51;100540.00;;;17.60
38114;BMP180;23926;53.222;6.354;2022-09-09T04:34:16;100528.00;;;17.60
38114;BMP180;23926;53.222;6.354;2022-09-09T04:36:42;100540.00;;;17.70
38114;BMP180;23926;53.222;6.354;2022-09-09T04:39:08;100531.00;;;17.70
38114;BMP180;23926;53.222;6.354;2022-09-09T04:41:33;100540.00;;;17.70
38114;BMP180;23926;53.222;6.354;2022-09-09T04:44:02;100531.00;;;17.80
38114;BMP180;23926;53.222;6.354;2022-09-09T04:46:28;100530.00;;;17.80
38114;BMP180;23926;53.222;6.354;2022-09-09T04:48:54;100526.00;;;17.80
38114;BMP180;23926;53.222;6.354;2022-09-09T04:51:19;100545.00;;;17.80
38114;BMP180;23926;53.222;6.354;2022-09-09T04:53:45;100539.00;;;17.80
38114;BMP180;23926;53.222;6.354;2022-09-09T04:56:14;100528.00;;;17.80
38114;BMP180;23926;53.222;6.354;2022-09-09T04:58:40;100536.00;;;17.80
38114;BMP180;23926;53.222;6.354;2022-09-09T05:01:20;100533.00;;;17.80
38114;BMP180;23926;53.222;6.354;2022-09-09T05:03:50;100541.00;;;17.80
38114;BMP180;23926;53.222;6.354;2022-09-09T05:06:17;100547.00;;;17.80
38114;BMP180;23926;53.222;6.354;2022-09-09T05:08:43;100550.00;;;17.80
38114;BMP180;23926;53.222;6.354;2022-09-09T05:11:21;100544.00;;;17.80
38114;BMP180;23926;53.222;6.354;2022-09-09T05:13:47;100548.00;;;17.80
38114;BMP180;23926;53.222;6.354;2022-09-09T05:16:13;100553.00;;;17.80
38114;BMP180;23926;53.222;6.354;2022-09-09T05:18:40;100554.00;;;17.80
38114;BMP180;23926;53.222;6.354;2022-09-09T05:21:06;100551.00;;;17.80
38114;BMP180;23926;53.222;6.354;2022-09-09T05:23:33;100550.00;;;17.80
38114;BMP180;23926;53.222;6.354;2022-09-09T05:25:59;100553.00;;;17.90
38114;BMP180;23926;53.222;6.354;2022-09-09T05:28:26;100555.00;;;17.90
38114;BMP180;23926;53.222;6.354;2022-09-09T05:31:02;100553.00;;;17.90
38114;BMP180;23926;53.222;6.354;2022-09-09T05:33:33;100543.00;;;17.90
38114;BMP180;23926;53.222;6.354;2022-09-09T05:36:04;100542.00;;;17.90
38114;BMP180;23926;53.222;6.354;2022-09-09T05:38:31;100555.00;;;17.90
38114;BMP180;23926;53.222;6.354;2022-09-09T05:40:57;100546.00;;;17.90
38114;BMP180;23926;53.222;6.354;2022-09-09T05:43:23;100549.00;;;17.90
38114;BMP180;23926;53.222;6.354;2022-09-09T05:45:59;100565.00;;;17.90
38114;BMP180;23926;53.222;6.354;2022-09-09T05:48:34;100564.00;;;17.90
38114;BMP180;23926;53.222;6.354;2022-09-09T05:51:00;100561.00;;;17.90
38114;BMP180;23926;53.222;6.354;2022-09-09T05:53:28;100560.00;;;17.90
38114;BMP180;23926;53.222;6.354;2022-09-09T05:56:08;100556.00;;;17.90
38114;BMP180;23926;53.222;6.354;2022-09-09T05:58:38;100561.00;;;17.90
38114;BMP180;23926;53.222;6.354;2022-09-09T06:01:09;100562.00;;;17.90
38114;BMP180;23926;53.222;6.354;2022-09-09T06:03:36;100567.00;;;18.00
38114;BMP180;23926;53.222;6.354;2022-09-09T06:06:05;100551.00;;;18.00
38114;BMP180;23926;53.222;6.354;2022-09-09T06:08:31;100559.00;;;18.00
38114;BMP180;23926;53.222;6.354;2022-09-09T06:11:07;100559.00;;;18.00
38114;BMP180;23926;53.222;6.354;2022-09-09T06:13:33;100567.00;;;18.10
38114;BMP180;23926;53.222;6.354;2022-09-09T06:16:00;100562.00;;;18.10
38114;BMP180;23926;53.222;6.354;2022-09-09T06:18:26;100569.00;;;18.20
38114;BMP180;23926;53.222;6.354;2022-09-09T06:21:02;100566.00;;;18.20
38114;BMP180;23926;53.222;6.354;2022-09-09T06:23:30;100571.00;;;18.20
38114;BMP180;23926;53.222;6.354;2022-09-09T06:26:17;100569.00;;;18.30
38114;BMP180;23926;53.222;6.354;2022-09-09T06:28:43;100569.00;;;18.40
38114;BMP180;23926;53.222;6.354;2022-09-09T06:31:11;100573.00;;;18.40
38114;BMP180;23926;53.222;6.354;2022-09-09T06:33:39;100574.00;;;18.40
38114;BMP180;23926;53.222;6.354;2022-09-09T06:36:10;100570.00;;;18.50
38114;BMP180;23926;53.222;6.354;2022-09-09T06:38:37;100565.00;;;18.60
38114;BMP180;23926;53.222;6.354;2022-09-09T06:41:03;100563.00;;;18.70
38114;BMP180;23926;53.222;6.354;2022-09-09T06:43:29;100566.00;;;18.80
38114;BMP180;23926;53.222;6.354;2022-09-09T06:46:03;100564.00;;;18.80
38114;BMP180;23926;53.222;6.354;2022-09-09T06:48:28;100566.00;;;18.90
38114;BMP180;23926;53.222;6.354;2022-09-09T06:51:08;100573.00;;;19.00
38114;BMP180;23926;53.222;6.354;2022-09-09T06:53:35;100563.00;;;19.10
38114;BMP180;23926;53.222;6.354;2022-09-09T06:56:02;100565.00;;;19.10
38114;BMP180;23926;53.222;6.354;2022-09-09T06:58:28;100559.00;;;19.20
38114;BMP180;23926;53.222;6.354;2022-09-09T07:01:06;100548.00;;;19.20
38114;BMP180;23926;53.222;6.354;2022-09-09T07:03:32;100556.00;;;19.20
38114;BMP180;23926;53.222;6.354;2022-09-09T07:05:58;100561.00;;;19.30
38114;BMP180;23926;53.222;6.354;2022-09-09T07:08:24;100566.00;;;19.30
38114;BMP180;23926;53.222;6.354;2022-09-09T07:10:50;100566.00;;;19.40
38114;BMP180;23926;53.222;6.354;2022-09-09T07:13:25;100561.00;;;19.40
38114;BMP180;23926;53.222;6.354;2022-09-09T07:15:51;100573.00;;;19.50
38114;BMP180;23926;53.222;6.354;2022-09-09T07:18:17;100571.00;;;19.50
38114;BMP180;23926;53.222;6.354;2022-09-09T07:20:42;100563.00;;;19.60
38114;BMP180;23926;53.222;6.354;2022-09-09T07:23:08;100560.00;;;19.60
38114;BMP180;23926;53.222;6.354;2022-09-09T07:25:33;100578.00;;;19.70
38114;BMP180;23926;53.222;6.354;2022-09-09T07:27:59;100566.00;;;19.80
38114;BMP180;23926;53.222;6.354;2022-09-09T07:30:24;100570.00;;;19.80
38114;BMP180;23926;53.222;6.354;2022-09-09T07:32:51;100562.00;;;20.00
38114;BMP180;23926;53.222;6.354;2022-09-09T07:35:19;100567.00;;;20.00
38114;BMP180;23926;53.222;6.354;2022-09-09T07:37:45;100564.00;;;20.10
38114;BMP180;23926;53.222;6.354;2022-09-09T07:40:10;100559.00;;;20.10
38114;BMP180;23926;53.222;6.354;2022-09-09T07:42:36;100575.00;;;20.10
38114;BMP180;23926;53.222;6.354;2022-09-09T07:45:03;100583.00;;;20.20
38114;BMP180;23926;53.222;6.354;2022-09-09T07:47:29;100571.00;;;20.20
38114;BMP180;23926;53.222;6.354;2022-09-09T07:49:54;100561.00;;;20.20
38114;BMP180;23926;53.222;6.354;2022-09-09T07:52:20;100580.00;;;20.10
38114;BMP180;23926;53.222;6.354;2022-09-09T07:54:46;100576.00;;;20.20
38114;BMP180;23926;53.222;6.354;2022-09-09T07:57:12;100578.00;;;20.20
38114;BMP180;23926;53.222;6.354;2022-09-09T07:59:37;100570.00;;;20.20
38114;BMP180;23926;53.222;6.354;2022-09-09T08:02:03;100572.00;;;20.10
38114;BMP180;23926;53.222;6.354;2022-09-09T08:04:28;100566.00;;;20.10
38114;BMP180;23926;53.222;6.354;2022-09-09T08:06:59;100573.00;;;20.20
38114;BMP180;23926;53.222;6.354;2022-09-09T08:09:27;100569.00;;;20.20
38114;BMP180;23926;53.222;6.354;2022-09-09T08:11:55;100579.00;;;20.30
38114;BMP180;23926;53.222;6.354;2022-09-09T08:14:22;100576.00;;;20.30
38114;BMP180;23926;53.222;6.354;2022-09-09T08:16:49;100580.00;;;20.40
38114;BMP180;23926;53.222;6.354;2022-09-09T08:19:15;100591.00;;;20.50
38114;BMP180;23926;53.222;6.354;2022-09-09T08:21:42;100589.00;;;20.50
38114;BMP180;23926;53.222;6.354;2022-09-09T08:24:09;100578.00;;;20.60
38114;BMP180;23926;53.222;6.354;2022-09-09T08:26:42;100576.00;;;20.70
38114;BMP180;23926;53.222;6.354;2022-09-09T08:29:09;100590.00;;;20.70
38114;BMP180;23926;53.222;6.354;2022-09-09T08:31:40;100592.00;;;20.80
38114;BMP180;23926;53.222;6.354;2022-09-09T08:34:08;100589.00;;;20.90
38114;BMP180;23926;53.222;6.354;2022-09-09T08:36:39;100573.00;;;20.90
38114;BMP180;23926;53.222;6.354;2022-09-09T08:39:06;100580.00;;;21.00
38114;BMP180;23926;53.222;6.354;2022-09-09T08:52:29;100581.00;;;21.30
38114;BMP180;23926;53.222;6.354;2022-09-09T08:54:59;100595.00;;;21.40
38114;BMP180;23926;53.222;6.354;2022-09-09T08:57:28;100594.00;;;21.60
38114;BMP180;23926;53.222;6.354;2022-09-09T08:59:57;100591.00;;;21.70
38114;BMP180;23926;53.222;6.354;2022-09-09T09:12:53;100601.00;;;22.80
38114;BMP180;23926;53.222;6.354;2022-09-09T09:15:30;100599.00;;;23.20
38114;BMP180;23926;53.222;6.354;2022-09-09T09:17:56;100603.00;;;23.50
38114;BMP180;23926;53.222;6.354;2022-09-09T09:20:54;100609.00;;;23.80
38114;BMP180;23926;53.222;6.354;2022-09-09T09:23:23;100619.00;;;23.90
38114;BMP180;23926;53.222;6.354;2022-09-09T09:25:50;100618.00;;;24.00
38114;BMP180;23926;53.222;6.354;2022-09-09T09:28:42;100619.00;;;24.20
38114;BMP180;23926;53.222;6.354;2022-09-09T09:31:10;100622.00;;;24.60
38114;BMP180;23926;53.222;6.354;2022-09-09T09:33:51;100630.00;;;24.80
38114;BMP180;23926;53.222;6.354;2022-09-09T09:36:23;100616.00;;;25.10
38114;BMP180;23926;53.222;6.354;2022-09-09T09:38:59;100627.00;;;25.20
38114;BMP180;23926;53.222;6.354;2022-09-09T09:44:02;100633.00;;;25.40
38114;BMP180;23926;53.222;6.354;2022-09-09T09:46:28;100627.00;;;25.40
38114;BMP180;23926;53.222;6.354;2022-09-09T09:49:05;100634.00;;;25.30
38114;BMP180;23926;53.222;6.354;2022-09-09T09:51:32;100625.00;;;25.10
38114;BMP180;23926;53.222;6.354;2022-09-09T09:56:34;100632.00;;;25.10
38114;BMP180;23926;53.222;6.354;2022-09-09T09:59:02;100636.00;;;25.00
38114;BMP180;23926;53.222;6.354;2022-09-09T10:01:29;100631.00;;;25.00
38114;BMP180;23926;53.222;6.354;2022-09-09T10:04:22;100637.00;;;24.90
38114;BMP180;23926;53.222;6.354;2022-09-09T10:06:50;100644.00;;;24.80
38114;BMP180;23926;53.222;6.354;2022-09-09T10:09:25;100649.00;;;24.60
38114;BMP180;23926;53.222;6.354;2022-09-09T10:17:26;100650.00;;;24.30
38114;BMP180;23926;53.222;6.354;2022-09-09T10:22:35;100639.00;;;24.50
38114;BMP180;23926;53.222;6.354;2022-09-09T10:25:25;100646.00;;;24.80
38114;BMP180;23926;53.222;6.354;2022-09-09T10:28:07;100649.00;;;25.00
38114;BMP180;23926;53.222;6.354;2022-09-09T10:36:23;100656.00;;;25.20
38114;BMP180;23926;53.222;6.354;2022-09-09T10:39:02;100658.00;;;25.30
38114;BMP180;23926;53.222;6.354;2022-09-09T10:47:12;100652.00;;;25.20
38114;BMP180;23926;53.222;6.354;2022-09-09T10:53:15;100659.00;;;25.00
38114;BMP180;23926;53.222;6.354;2022-09-09T10:55:48;100655.00;;;24.80
38114;BMP180;23926;53.222;6.354;2022-09-09T10:58:25;100649.00;;;24.70
38114;BMP180;23926;53.222;6.354;2022-09-09T11:00:57;100655.00;;;24.60
38114;BMP180;23926;53.222;6.354;2022-09-09T11:03:27;100649.00;;;24.60
38114;BMP180;23926;53.222;6.354;2022-09-09T11:06:01;100653.00;;;24.60
38114;BMP180;23926;53.222;6.354;2022-09-09T11:08:30;100656.00;;;24.50
38114;BMP180;23926;53.222;6.354;2022-09-09T11:21:47;100643.00;;;24.70
38114;BMP180;23926;53.222;6.354;2022-09-09T11:24:27;100647.00;;;24.70
38114;BMP180;23926;53.222;6.354;2022-09-09T11:27:16;100646.00;;;24.80
38114;BMP180;23926;53.222;6.354;2022-09-09T11:32:34;100647.00;;;24.40
38114;BMP180;23926;53.222;6.354;2022-09-09T11:35:26;100649.00;;;24.30
38114;BMP180;23926;53.222;6.354;2022-09-09T11:38:18;100642.00;;;24.70
38114;BMP180;23926;53.222;6.354;2022-09-09T11:40:45;100652.00;;;25.10
38114;BMP180;23926;53.222;6.354;2022-09-09T11:43:14;100647.00;;;25.30
38114;BMP180;23926;53.222;6.354;2022-09-09T11:45:41;100651.00;;;25.40
38114;BMP180;23926;53.222;6.354;2022-09-09T11:51:24;100655.00;;;25.00
38114;BMP180;23926;53.222;6.354;2022-09-09T11:54:01;100643.00;;;24.90
38114;BMP180;23926;53.222;6.354;2022-09-09T11:56:44;100657.00;;;24.90
38114;BMP180;23926;53.222;6.354;2022-09-09T11:59:27;100652.00;;;25.00
38114;BMP180;23926;53.222;6.354;2022-09-09T12:02:18;100656.00;;;25.20
38114;BMP180;23926;53.222;6.354;2022-09-09T12:04:53;100648.00;;;25.30
38114;BMP180;23926;53.222;6.354;2022-09-09T12:10:04;100650.00;;;25.80
38114;BMP180;23926;53.222;6.354;2022-09-09T12:12:35;100646.00;;;25.60
38114;BMP180;23926;53.222;6.354;2022-09-09T12:17:42;100652.00;;;25.30
38114;BMP180;23926;53.222;6.354;2022-09-09T12:20:23;100651.00;;;25.10
38114;BMP180;23926;53.222;6.354;2022-09-09T12:26:12;100647.00;;;24.90
38114;BMP180;23926;53.222;6.354;2022-09-09T12:31:43;100650.00;;;24.50
38114;BMP180;23926;53.222;6.354;2022-09-09T12:36:38;100643.00;;;24.70
38114;BMP180;23926;53.222;6.354;2022-09-09T12:39:32;100641.00;;;25.10
38114;BMP180;23926;53.222;6.354;2022-09-09T12:41:59;100637.00;;;25.40
38114;BMP180;23926;53.222;6.354;2022-09-09T12:44:25;100643.00;;;25.50
38114;BMP180;23926;53.222;6.354;2022-09-09T12:46:53;100642.00;;;25.40
38114;BMP180;23926;53.222;6.354;2022-09-09T12:49:31;100639.00;;;25.50
38114;BMP180;23926;53.222;6.354;2022-09-09T12:52:01;100635.00;;;25.60
38114;BMP180;23926;53.222;6.354;2022-09-09T12:54:27;100627.00;;;25.60
38114;BMP180;23926;53.222;6.354;2022-09-09T12:56:53;100632.00;;;25.70
38114;BMP180;23926;53.222;6.354;2022-09-09T12:59:24;100623.00;;;25.60
38114;BMP180;23926;53.222;6.354;2022-09-09T13:01:57;100624.00;;;25.60
38114;BMP180;23926;53.222;6.354;2022-09-09T13:04:23;100625.00;;;25.50
38114;BMP180;23926;53.222;6.354;2022-09-09T13:06:48;100624.00;;;25.40
38114;BMP180;23926;53.222;6.354;2022-09-09T13:09:14;100608.00;;;25.40
38114;BMP180;23926;53.222;6.354;2022-09-09T13:11:49;100614.00;;;25.50
38114;BMP180;23926;53.222;6.354;2022-09-09T13:14:35;100607.00;;;25.50
38114;BMP180;23926;53.222;6.354;2022-09-09T13:17:04;100610.00;;;25.40
38114;BMP180;23926;53.222;6.354;2022-09-09T13:19:33;100602.00;;;25.20
38114;BMP180;23926;53.222;6.354;2022-09-09T13:22:20;100605.00;;;25.10
38114;BMP180;23926;53.222;6.354;2022-09-09T13:24:46;100608.00;;;25.20
38114;BMP180;23926;53.222;6.354;2022-09-09T13:27:29;100610.00;;;25.10
38114;BMP180;23926;53.222;6.354;2022-09-09T13:29:56;100605.00;;;25.00
38114;BMP180;23926;53.222;6.354;2022-09-09T13:32:23;100608.00;;;25.10
38114;BMP180;23926;53.222;6.354;2022-09-09T13:34:57;100611.00;;;25.10
38114;BMP180;23926;53.222;6.354;2022-09-09T13:37:44;100607.00;;;25.20
38114;BMP180;23926;53.222;6.354;2022-09-09T13:40:18;100602.00;;;25.10
38114;BMP180;23926;53.222;6.354;2022-09-09T13:42:44;100603.00;;;25.00
38114;BMP180;23926;53.222;6.354;2022-09-09T13:45:21;100601.00;;;25.00
38114;BMP180;23926;53.222;6.354;2022-09-09T13:47:49;100598.00;;;25.10
38114;BMP180;23926;53.222;6.354;2022-09-09T13:50:26;100610.00;;;25.10
38114;BMP180;23926;53.222;6.354;2022-09-09T13:52:54;100619.00;;;25.00
38114;BMP180;23926;53.222;6.354;2022-09-09T13:55:22;100613.00;;;24.70
38114;BMP180;23926;53.222;6.354;2022-09-09T13:57:55;100621.00;;;24.30
38114;BMP180;23926;53.222;6.354;2022-09-09T14:00:21;100616.00;;;23.90
38114;BMP180;23926;53.222;6.354;2022-09-09T14:02:48;100612.00;;;23.60
38114;BMP180;23926;53.222;6.354;2022-09-09T14:05:14;100616.00;;;23.50
38114;BMP180;23926;53.222;6.354;2022-09-09T14:07:41;100614.00;;;23.40
38114;BMP180;23926;53.222;6.354;2022-09-09T14:10:08;100619.00;;;23.30
38114;BMP180;23926;53.222;6.354;2022-09-09T14:12:33;100619.00;;;23.20
38114;BMP180;23926;53.222;6.354;2022-09-09T14:14:59;100612.00;;;23.20
38114;BMP180;23926;53.222;6.354;2022-09-09T14:17:25;100609.00;;;23.00
38114;BMP180;23926;53.222;6.354;2022-09-09T14:19:54;100614.00;;;22.80
38114;BMP180;23926;53.222;6.354;2022-09-09T14:22:20;100613.00;;;22.80
38114;BMP180;23926;53.222;6.354;2022-09-09T14:24:45;100621.00;;;22.70
38114;BMP180;23926;53.222;6.354;2022-09-09T14:27:11;100617.00;;;22.80
38114;BMP180;23926;53.222;6.354;2022-09-09T14:29:36;100612.00;;;22.90
38114;BMP180;23926;53.222;6.354;2022-09-09T14:32:02;100618.00;;;23.10
38114;BMP180;23926;53.222;6.354;2022-09-09T14:34:27;100618.00;;;23.20
38114;BMP180;23926;53.222;6.354;2022-09-09T14:36:52;100612.00;;;23.40
38114;BMP180;23926;53.222;6.354;2022-09-09T14:39:18;100608.00;;;23.60
38114;BMP180;23926;53.222;6.354;2022-09-09T14:41:43;100607.00;;;23.70
38114;BMP180;23926;53.222;6.354;2022-09-09T14:44:09;100611.00;;;23.70
38114;BMP180;23926;53.222;6.354;2022-09-09T14:46:35;100610.00;;;23.60
38114;BMP180;23926;53.222;6.354;2022-09-09T14:49:00;100626.00;;;23.60
38114;BMP180;23926;53.222;6.354;2022-09-09T14:51:26;100615.00;;;23.50
38114;BMP180;23926;53.222;6.354;2022-09-09T14:53:58;100606.00;;;23.40
38114;BMP180;23926;53.222;6.354;2022-09-09T14:56:27;100620.00;;;23.40
38114;BMP180;23926;53.222;6.354;2022-09-09T14:58:57;100613.00;;;23.50
38114;BMP180;23926;53.222;6.354;2022-09-09T15:01:24;100611.00;;;24.00
38114;BMP180;23926;53.222;6.354;2022-09-09T15:04:00;100607.00;;;24.40
38114;BMP180;23926;53.222;6.354;2022-09-09T15:06:28;100619.00;;;24.70
38114;BMP180;23926;53.222;6.354;2022-09-09T15:08:54;100608.00;;;24.90
38114;BMP180;23926;53.222;6.354;2022-09-09T15:11:24;100607.00;;;25.10
38114;BMP180;23926;53.222;6.354;2022-09-09T15:13:51;100609.00;;;25.10
38114;BMP180;23926;53.222;6.354;2022-09-09T15:16:21;100619.00;;;25.20
38114;BMP180;23926;53.222;6.354;2022-09-09T15:18:49;100619.00;;;25.30
38114;BMP180;23926;53.222;6.354;2022-09-09T15:21:18;100618.00;;;25.10
38114;BMP180;23926;53.222;6.354;2022-09-09T15:23:47;100605.00;;;24.70
38114;BMP180;23926;53.222;6.354;2022-09-09T15:26:13;100610.00;;;24.60
38114;BMP180;23926;53.222;6.354;2022-09-09T15:28:39;100611.00;;;24.50
38114;BMP180;23926;53.222;6.354;2022-09-09T15:31:13;100606.00;;;24.20
38114;BMP180;23926;53.222;6.354;2022-09-09T15:33:52;100609.00;;;24.10
38114;BMP180;23926;53.222;6.354;2022-09-09T15:36:25;100608.00;;;24.10
38114;BMP180;23926;53.222;6.354;2022-09-09T15:38:52;100604.00;;;24.00
38114;BMP180;23926;53.222;6.354;2022-09-09T15:41:19;100606.00;;;23.80
38114;BMP180;23926;53.222;6.354;2022-09-09T15:43:53;100596.00;;;23.70
38114;BMP180;23926;53.222;6.354;2022-09-09T15:48:55;100590.00;;;23.60
38114;BMP180;23926;53.222;6.354;2022-09-09T15:51:21;100596.00;;;23.70
38114;BMP180;23926;53.222;6.354;2022-09-09T15:53:47;100590.00;;;23.70
38114;BMP180;23926;53.222;6.354;2022-09-09T15:56:13;100595.00;;;23.80
38114;BMP180;23926;53.222;6.354;2022-09-09T15:58:38;100589.00;;;23.80
38114;BMP180;23926;53.222;6.354;2022-09-09T16:01:08;100604.00;;;23.80
38114;BMP180;23926;53.222;6.354;2022-09-09T16:03:35;100599.00;;;23.60
38114;BMP180;23926;53.222;6.354;2022-09-09T16:06:00;100610.00;;;23.50
38114;BMP180;23926;53.222;6.354;2022-09-09T16:08:34;100595.00;;;23.40
38114;BMP180;23926;53.222;6.354;2022-09-09T16:11:11;100611.00;;;23.20